createdAt,value
2017-07-31T00:01:04.402Z,1012.27
2017-07-31T00:02:13.929Z,1012.3
2017-07-31T00:03:23.160Z,1012.31
2017-07-31T00:04:32.515Z,1012.31
2017-07-31T00:05:41.417Z,1012.34
2017-07-31T00:06:50.301Z,1012.3
2017-07-31T00:07:59.830Z,1012.32
2017-07-31T00:09:09.033Z,1012.33
2017-07-31T00:10:19.186Z,1012.28
2017-07-31T00:11:28.718Z,1012.3
2017-07-31T00:12:37.923Z,1012.19
2017-07-31T00:13:46.807Z,1012.2
2017-07-31T00:14:56.014Z,1012.21
2017-07-31T00:16:05.422Z,1012.24
2017-07-31T00:17:14.631Z,1012.19
2017-07-31T00:18:23.838Z,1012.21
2017-07-31T00:19:34.012Z,1012.18
2017-07-31T00:20:43.219Z,1012.11
2017-07-31T00:21:52.895Z,1012.09
2017-07-31T00:23:02.751Z,1012.08
2017-07-31T00:24:12.602Z,1012.03
2017-07-31T00:25:21.813Z,1012.06
2017-07-31T00:26:31.344Z,1012.02
2017-07-31T00:27:41.273Z,1012.01
2017-07-31T00:28:50.799Z,1012.1
2017-07-31T00:30:00.009Z,1012.08
2017-07-31T00:31:09.542Z,1012.15
2017-07-31T00:32:19.070Z,1012.16
2017-07-31T00:33:28.700Z,1012.24
2017-07-31T00:34:38.549Z,1012.23
2017-07-31T00:35:47.757Z,1012.3
2017-07-31T00:36:57.279Z,1012.36
2017-07-31T00:38:06.806Z,1012.43
2017-07-31T00:39:16.659Z,1012.47
2017-07-31T00:40:25.864Z,1012.57
2017-07-31T00:41:35.071Z,1012.54
2017-07-31T00:42:43.951Z,1012.53
2017-07-31T00:43:53.808Z,1012.56
2017-07-31T00:45:02.747Z,1012.52
2017-07-31T00:46:11.959Z,1012.51
2017-07-31T00:47:21.167Z,1012.43
2017-07-31T00:48:31.013Z,1012.44
2017-07-31T00:49:40.213Z,1012.4
2017-07-31T00:50:49.892Z,1012.39
2017-07-31T00:51:58.771Z,1012.37
2017-07-31T00:53:08.297Z,1012.37
2017-07-31T00:54:17.182Z,1012.33
2017-07-31T00:55:26.391Z,1012.36
2017-07-31T00:56:35.762Z,1012.33
2017-07-31T00:57:45.289Z,1012.29
2017-07-31T00:58:54.818Z,1012.34
2017-07-31T01:00:04.027Z,1012.29
2017-07-31T01:01:13.557Z,1012.32
2017-07-31T01:02:23.089Z,1012.3
2017-07-31T01:03:32.296Z,1012.3
2017-07-31T01:04:41.830Z,1012.33
2017-07-31T01:05:51.034Z,1012.29
2017-07-31T01:07:00.246Z,1012.26
2017-07-31T01:08:10.419Z,1012.29
2017-07-31T01:09:19.622Z,1012.3
2017-07-31T01:10:28.828Z,1012.33
2017-07-31T01:11:38.047Z,1012.37
2017-07-31T01:12:47.580Z,1012.41
2017-07-31T01:13:56.833Z,1012.36
2017-07-31T01:15:06.368Z,1012.36
2017-07-31T01:16:16.271Z,1012.39
2017-07-31T01:17:25.152Z,1012.37
2017-07-31T01:18:34.683Z,1012.34
2017-07-31T01:19:43.565Z,1012.37
2017-07-31T01:20:52.782Z,1012.43
2017-07-31T01:22:02.634Z,1012.43
2017-07-31T01:23:11.837Z,1012.42
2017-07-31T01:24:21.368Z,1012.4
2017-07-31T01:25:30.623Z,1012.37
2017-07-31T01:26:40.154Z,1012.38
2017-07-31T01:27:49.353Z,1012.42
2017-07-31T01:28:58.557Z,1012.39
2017-07-31T01:30:07.763Z,1012.36
2017-07-31T01:31:17.444Z,1012.37
2017-07-31T01:32:26.975Z,1012.39
2017-07-31T01:33:36.178Z,1012.45
2017-07-31T01:34:46.033Z,1012.4
2017-07-31T01:35:55.878Z,1012.35
2017-07-31T01:37:05.730Z,1012.36
2017-07-31T01:38:15.580Z,1012.3
2017-07-31T01:39:25.108Z,1012.32
2017-07-31T01:40:34.969Z,1012.36
2017-07-31T01:41:44.523Z,1012.4
2017-07-31T01:42:54.374Z,1012.38
2017-07-31T01:44:03.901Z,1012.42
2017-07-31T01:45:13.113Z,1012.38
2017-07-31T01:46:22.313Z,1012.38
2017-07-31T01:47:31.200Z,1012.39
2017-07-31T01:48:40.403Z,1012.39
2017-07-31T01:49:49.611Z,1012.4
2017-07-31T01:50:59.142Z,1012.4
2017-07-31T01:52:08.669Z,1012.38
2017-07-31T01:53:18.197Z,1012.36
2017-07-31T01:54:27.237Z,1012.4
2017-07-31T01:55:36.442Z,1012.43
2017-07-31T01:56:45.973Z,1012.43
2017-07-31T01:57:55.826Z,1012.44
2017-07-31T01:59:05.052Z,1012.43
2017-07-31T02:00:14.565Z,1012.46
2017-07-31T02:01:24.416Z,1012.52
2017-07-31T02:02:33.620Z,1012.52
2017-07-31T02:03:43.154Z,1012.52
2017-07-31T02:04:52.037Z,1012.56
2017-07-31T02:06:02.520Z,1012.52
2017-07-31T02:07:11.403Z,1012.51
2017-07-31T02:08:20.933Z,1012.45
2017-07-31T02:09:29.816Z,1012.45
2017-07-31T02:10:39.023Z,1012.42
2017-07-31T02:11:48.984Z,1012.47
2017-07-31T02:12:59.157Z,1012.43
2017-07-31T02:14:08.363Z,1012.44
2017-07-31T02:15:17.244Z,1012.47
2017-07-31T02:16:26.772Z,1012.55
2017-07-31T02:17:36.356Z,1012.62
2017-07-31T02:18:45.888Z,1012.68
2017-07-31T02:19:55.093Z,1012.67
2017-07-31T02:21:04.308Z,1012.64
2017-07-31T02:22:13.839Z,1012.62
2017-07-31T02:23:23.901Z,1012.63
2017-07-31T02:24:33.119Z,1012.66
2017-07-31T02:25:42.000Z,1012.7
2017-07-31T02:26:52.182Z,1012.71
2017-07-31T02:28:02.032Z,1012.71
2017-07-31T02:29:11.882Z,1012.72
2017-07-31T02:30:21.090Z,1012.71
2017-07-31T02:31:31.267Z,1012.73
2017-07-31T02:32:41.126Z,1012.72
2017-07-31T02:33:50.334Z,1012.7
2017-07-31T02:35:00.608Z,1012.62
2017-07-31T02:36:10.179Z,1012.62
2017-07-31T02:37:19.712Z,1012.59
2017-07-31T02:38:29.256Z,1012.61
2017-07-31T02:39:38.782Z,1012.59
2017-07-31T02:40:48.345Z,1012.61
2017-07-31T02:41:57.234Z,1012.57
2017-07-31T02:43:06.441Z,1012.59
2017-07-31T02:44:15.652Z,1012.61
2017-07-31T02:45:24.862Z,1012.66
2017-07-31T02:46:34.541Z,1012.64
2017-07-31T02:47:43.749Z,1012.68
2017-07-31T02:48:53.928Z,1012.65
2017-07-31T02:50:02.824Z,1012.58
2017-07-31T02:51:13.024Z,1012.63
2017-07-31T02:52:22.381Z,1012.7
2017-07-31T02:53:31.587Z,1012.68
2017-07-31T02:54:41.762Z,1012.72
2017-07-31T02:55:50.966Z,1012.69
2017-07-31T02:57:00.205Z,1012.68
2017-07-31T02:58:09.558Z,1012.69
2017-07-31T02:59:18.764Z,1012.67
2017-07-31T03:00:28.299Z,1012.69
2017-07-31T03:01:38.478Z,1012.7
2017-07-31T03:02:48.011Z,1012.72
2017-07-31T03:03:57.222Z,1012.64
2017-07-31T03:05:06.750Z,1012.66
2017-07-31T03:06:15.629Z,1012.67
2017-07-31T03:07:25.486Z,1012.77
2017-07-31T03:08:35.342Z,1012.77
2017-07-31T03:09:44.545Z,1012.78
2017-07-31T03:10:54.077Z,1012.73
2017-07-31T03:12:03.283Z,1012.75
2017-07-31T03:13:13.137Z,1012.73
2017-07-31T03:14:22.987Z,1012.75
2017-07-31T03:15:32.519Z,1012.73
2017-07-31T03:16:42.376Z,1012.72
2017-07-31T03:17:51.583Z,1012.73
2017-07-31T03:19:00.789Z,1012.74
2017-07-31T03:20:10.003Z,1012.73
2017-07-31T03:21:18.935Z,1012.68
2017-07-31T03:22:28.140Z,1012.73
2017-07-31T03:23:37.350Z,1012.71
2017-07-31T03:24:46.233Z,1012.69
2017-07-31T03:25:55.108Z,1012.69
2017-07-31T03:27:04.692Z,1012.67
2017-07-31T03:28:14.230Z,1012.69
2017-07-31T03:29:23.756Z,1012.67
2017-07-31T03:30:33.610Z,1012.66
2017-07-31T03:31:43.797Z,1012.7
2017-07-31T03:32:53.382Z,1012.72
2017-07-31T03:34:02.263Z,1012.7
2017-07-31T03:35:12.115Z,1012.73
2017-07-31T03:36:21.317Z,1012.76
2017-07-31T03:37:30.844Z,1012.76
2017-07-31T03:38:40.670Z,1012.75
2017-07-31T03:39:50.846Z,1012.76
2017-07-31T03:41:00.065Z,1012.75
2017-07-31T03:42:09.592Z,1012.79
2017-07-31T03:43:19.132Z,1012.79
2017-07-31T03:44:28.961Z,1012.81
2017-07-31T03:45:38.162Z,1012.8
2017-07-31T03:46:47.690Z,1012.86
2017-07-31T03:47:56.904Z,1012.8
2017-07-31T03:49:06.760Z,1012.82
2017-07-31T03:50:16.665Z,1012.88
2017-07-31T03:51:25.871Z,1012.95
2017-07-31T03:52:35.398Z,1013.01
2017-07-31T03:53:44.279Z,1013.03
2017-07-31T03:54:53.816Z,1013.01
2017-07-31T03:56:03.446Z,1013.06
2017-07-31T03:57:12.977Z,1013.08
2017-07-31T03:58:22.182Z,1013.07
2017-07-31T03:59:31.388Z,1013.07
2017-07-31T04:00:40.925Z,1013.09
2017-07-31T04:01:50.760Z,1013.19
2017-07-31T04:03:00.291Z,1013.11
2017-07-31T04:04:09.823Z,1013.14
2017-07-31T04:05:19.349Z,1013.16
2017-07-31T04:06:28.894Z,1013.18
2017-07-31T04:07:38.747Z,1013.22
2017-07-31T04:08:48.274Z,1013.2
2017-07-31T04:09:57.160Z,1013.21
2017-07-31T04:11:06.701Z,1013.18
2017-07-31T04:12:16.571Z,1013.12
2017-07-31T04:13:25.833Z,1013.14
2017-07-31T04:14:35.361Z,1013.11
2017-07-31T04:15:44.563Z,1013.15
2017-07-31T04:16:53.771Z,1013.16
2017-07-31T04:18:02.651Z,1013.18
2017-07-31T04:19:11.682Z,1013.16
2017-07-31T04:20:21.533Z,1013.2
2017-07-31T04:21:30.738Z,1013.17
2017-07-31T04:22:40.317Z,1013.15
2017-07-31T04:23:49.845Z,1013.15
2017-07-31T04:24:59.198Z,1013.14
2017-07-31T04:26:08.731Z,1013.22
2017-07-31T04:27:18.266Z,1013.16
2017-07-31T04:28:27.484Z,1013.17
2017-07-31T04:29:37.011Z,1013.15
2017-07-31T04:30:46.588Z,1013.14
2017-07-31T04:31:56.111Z,1013.14
2017-07-31T04:33:05.636Z,1013.16
2017-07-31T04:34:15.165Z,1013.19
2017-07-31T04:35:24.700Z,1013.2
2017-07-31T04:36:34.550Z,1013.19
2017-07-31T04:37:43.436Z,1013.21
2017-07-31T04:38:53.288Z,1013.21
2017-07-31T04:40:02.815Z,1013.25
2017-07-31T04:41:12.669Z,1013.24
2017-07-31T04:42:22.181Z,1013.26
2017-07-31T04:43:31.708Z,1013.27
2017-07-31T04:44:41.233Z,1013.26
2017-07-31T04:45:50.759Z,1013.29
2017-07-31T04:47:00.298Z,1013.25
2017-07-31T04:48:10.160Z,1013.32
2017-07-31T04:49:20.011Z,1013.31
2017-07-31T04:50:29.214Z,1013.3
2017-07-31T04:51:38.093Z,1013.32
2017-07-31T04:52:47.631Z,1013.3
2017-07-31T04:53:56.823Z,1013.35
2017-07-31T04:55:06.028Z,1013.36
2017-07-31T04:56:15.234Z,1013.36
2017-07-31T04:57:24.437Z,1013.35
2017-07-31T04:58:33.321Z,1013.37
2017-07-31T04:59:42.674Z,1013.36
2017-07-31T05:00:51.881Z,1013.41
2017-07-31T05:02:01.735Z,1013.36
2017-07-31T05:03:11.265Z,1013.37
2017-07-31T05:04:20.803Z,1013.41
2017-07-31T05:05:30.309Z,1013.43
2017-07-31T05:06:39.848Z,1013.43
2017-07-31T05:07:49.378Z,1013.43
2017-07-31T05:08:58.263Z,1013.43
2017-07-31T05:10:07.812Z,1013.49
2017-07-31T05:11:16.844Z,1013.48
2017-07-31T05:12:26.370Z,1013.51
2017-07-31T05:13:35.579Z,1013.52
2017-07-31T05:14:45.440Z,1013.55
2017-07-31T05:15:54.970Z,1013.56
2017-07-31T05:17:05.124Z,1013.55
2017-07-31T05:18:14.328Z,1013.59
2017-07-31T05:19:23.536Z,1013.6
2017-07-31T05:20:32.435Z,1013.59
2017-07-31T05:21:41.961Z,1013.6
2017-07-31T05:22:51.645Z,1013.61
2017-07-31T05:24:00.525Z,1013.56
2017-07-31T05:25:09.728Z,1013.64
2017-07-31T05:26:19.257Z,1013.62
2017-07-31T05:27:28.462Z,1013.69
2017-07-31T05:28:38.464Z,1013.7
2017-07-31T05:29:47.994Z,1013.76
2017-07-31T05:30:57.524Z,1013.78
2017-07-31T05:32:07.050Z,1013.81
2017-07-31T05:33:16.582Z,1013.8
2017-07-31T05:34:26.113Z,1013.83
2017-07-31T05:35:36.288Z,1013.82
2017-07-31T05:36:45.817Z,1013.79
2017-07-31T05:37:55.026Z,1013.75
2017-07-31T05:39:04.233Z,1013.78
2017-07-31T05:40:13.490Z,1013.78
2017-07-31T05:41:22.694Z,1013.77
2017-07-31T05:42:32.551Z,1013.76
2017-07-31T05:43:42.077Z,1013.77
2017-07-31T05:44:51.934Z,1013.78
2017-07-31T05:46:00.848Z,1013.8
2017-07-31T05:47:10.074Z,1013.79
2017-07-31T05:48:19.608Z,1013.79
2017-07-31T05:49:29.466Z,1013.75
2017-07-31T05:50:38.676Z,1013.77
2017-07-31T05:51:47.898Z,1013.78
2017-07-31T05:52:56.799Z,1013.8
2017-07-31T05:54:06.006Z,1013.76
2017-07-31T05:55:15.212Z,1013.73
2017-07-31T05:56:24.750Z,1013.7
2017-07-31T05:57:34.283Z,1013.72
2017-07-31T05:58:43.866Z,1013.71
2017-07-31T05:59:53.494Z,1013.68
2017-07-31T06:01:03.465Z,1013.66
2017-07-31T06:02:12.417Z,1013.65
2017-07-31T06:03:21.956Z,1013.64
2017-07-31T06:04:31.824Z,1013.63
2017-07-31T06:05:41.680Z,1013.67
2017-07-31T06:06:51.535Z,1013.73
2017-07-31T06:08:01.075Z,1013.66
2017-07-31T06:09:10.610Z,1013.65
2017-07-31T06:10:20.142Z,1013.67
2017-07-31T06:11:29.676Z,1013.66
2017-07-31T06:12:39.207Z,1013.66
2017-07-31T06:13:48.741Z,1013.68
2017-07-31T06:14:58.271Z,1013.59
2017-07-31T06:16:07.476Z,1013.58
2017-07-31T06:17:17.552Z,1013.63
2017-07-31T06:18:27.082Z,1013.58
2017-07-31T06:19:36.622Z,1013.62
2017-07-31T06:20:45.507Z,1013.65
2017-07-31T06:21:55.034Z,1013.66
2017-07-31T06:23:04.316Z,1013.74
2017-07-31T06:24:13.846Z,1013.72
2017-07-31T06:25:23.133Z,1013.71
2017-07-31T06:26:32.667Z,1013.7
2017-07-31T06:27:41.555Z,1013.7
2017-07-31T06:28:50.550Z,1013.74
2017-07-31T06:29:59.759Z,1013.75
2017-07-31T06:31:09.295Z,1013.8
2017-07-31T06:32:18.502Z,1013.78
2017-07-31T06:33:28.031Z,1013.83
2017-07-31T06:34:37.883Z,1013.81
2017-07-31T06:35:47.420Z,1013.85
2017-07-31T06:36:56.950Z,1013.81
2017-07-31T06:38:07.134Z,1013.87
2017-07-31T06:39:16.342Z,1013.81
2017-07-31T06:40:26.023Z,1013.92
2017-07-31T06:41:35.232Z,1013.86
2017-07-31T06:42:44.120Z,1013.9
2017-07-31T06:43:53.338Z,1013.93
2017-07-31T06:45:02.867Z,1013.9
2017-07-31T06:46:12.176Z,1013.86
2017-07-31T06:47:22.024Z,1013.92
2017-07-31T06:48:31.234Z,1013.91
2017-07-31T06:49:40.445Z,1013.87
2017-07-31T06:50:49.654Z,1013.91
2017-07-31T06:51:58.960Z,1013.92
2017-07-31T06:53:08.168Z,1013.94
2017-07-31T06:54:17.056Z,1013.92
2017-07-31T06:55:25.946Z,1013.94
2017-07-31T06:56:35.488Z,1013.95
2017-07-31T06:57:44.477Z,1013.94
2017-07-31T06:58:53.683Z,1013.92
2017-07-31T07:00:03.217Z,1013.93
2017-07-31T07:01:13.071Z,1013.94
2017-07-31T07:02:22.602Z,1013.93
2017-07-31T07:03:31.962Z,1013.96
2017-07-31T07:04:41.828Z,1013.94
2017-07-31T07:05:51.043Z,1013.97
2017-07-31T07:06:59.928Z,1013.97
2017-07-31T07:08:09.459Z,1013.97
2017-07-31T07:09:18.673Z,1013.95
2017-07-31T07:10:28.534Z,1013.98
2017-07-31T07:11:38.070Z,1013.96
2017-07-31T07:12:47.285Z,1013.91
2017-07-31T07:13:56.165Z,1013.95
2017-07-31T07:15:05.847Z,1013.95
2017-07-31T07:16:15.059Z,1013.92
2017-07-31T07:17:24.927Z,1013.94
2017-07-31T07:18:34.160Z,1013.94
2017-07-31T07:19:43.692Z,1013.95
2017-07-31T07:20:53.379Z,1013.96
2017-07-31T07:22:02.263Z,1013.94
2017-07-31T07:23:11.474Z,1013.92
2017-07-31T07:24:21.007Z,1013.89
2017-07-31T07:25:30.223Z,1013.92
2017-07-31T07:26:40.241Z,1013.98
2017-07-31T07:27:49.469Z,1014.02
2017-07-31T07:28:58.358Z,1014
2017-07-31T07:30:07.569Z,1014.04
2017-07-31T07:31:16.460Z,1014.04
2017-07-31T07:32:25.354Z,1014.02
2017-07-31T07:33:34.254Z,1013.99
2017-07-31T07:34:43.795Z,1013.97
2017-07-31T07:35:53.006Z,1013.95
2017-07-31T07:37:02.229Z,1013.93
2017-07-31T07:38:11.911Z,1013.89
2017-07-31T07:39:21.448Z,1013.92
2017-07-31T07:40:30.329Z,1013.94
2017-07-31T07:41:39.546Z,1013.92
2017-07-31T07:42:48.759Z,1013.93
2017-07-31T07:43:58.540Z,1013.91
2017-07-31T07:45:07.751Z,1013.95
2017-07-31T07:46:16.963Z,1013.89
2017-07-31T07:47:26.174Z,1013.95
2017-07-31T07:48:35.408Z,1013.95
2017-07-31T07:49:44.821Z,1013.93
2017-07-31T07:50:54.031Z,1013.94
2017-07-31T07:52:03.262Z,1013.95
2017-07-31T07:53:12.789Z,1013.99
2017-07-31T07:54:22.017Z,1013.96
2017-07-31T07:55:31.438Z,1013.97
2017-07-31T07:56:40.335Z,1013.95
2017-07-31T07:57:49.221Z,1013.94
2017-07-31T07:58:58.437Z,1013.97
2017-07-31T08:00:08.303Z,1013.94
2017-07-31T08:01:17.514Z,1014.01
2017-07-31T08:02:27.370Z,1014
2017-07-31T08:03:36.576Z,1014.05
2017-07-31T08:04:46.122Z,1014.08
2017-07-31T08:05:55.343Z,1014.1
2017-07-31T08:07:04.763Z,1014.11
2017-07-31T08:08:13.803Z,1014.13
2017-07-31T08:09:23.028Z,1014.12
2017-07-31T08:10:31.946Z,1014.12
2017-07-31T08:11:41.224Z,1014.13
2017-07-31T08:12:51.216Z,1014.13
2017-07-31T08:14:00.793Z,1014.11
2017-07-31T08:15:10.650Z,1014.13
2017-07-31T08:16:19.865Z,1014.14
2017-07-31T08:17:29.417Z,1014.11
2017-07-31T08:18:39.225Z,1014.17
2017-07-31T08:19:48.441Z,1014.07
2017-07-31T08:20:57.652Z,1014.11
2017-07-31T08:22:06.903Z,1014.11
2017-07-31T08:23:16.134Z,1014.14
2017-07-31T08:24:25.825Z,1014.16
2017-07-31T08:25:35.379Z,1014.2
2017-07-31T08:26:45.247Z,1014.19
2017-07-31T08:27:54.789Z,1014.2
2017-07-31T08:29:04.008Z,1014.17
2017-07-31T08:30:13.843Z,1014.18
2017-07-31T08:31:22.751Z,1014.17
2017-07-31T08:32:31.645Z,1014.14
2017-07-31T08:33:41.188Z,1014.2
2017-07-31T08:34:50.725Z,1014.17
2017-07-31T08:36:00.090Z,1014.21
2017-07-31T08:37:09.626Z,1014.17
2017-07-31T08:38:18.885Z,1014.21
2017-07-31T08:39:28.093Z,1014.13
2017-07-31T08:40:36.992Z,1014.14
2017-07-31T08:41:46.352Z,1014.12
2017-07-31T08:42:55.887Z,1014.12
2017-07-31T08:44:05.421Z,1014.17
2017-07-31T08:45:14.641Z,1014.13
2017-07-31T08:46:24.173Z,1014.11
2017-07-31T08:47:33.529Z,1014.11
2017-07-31T08:48:43.067Z,1014.09
2017-07-31T08:49:52.278Z,1014.1
2017-07-31T08:51:01.496Z,1014.11
2017-07-31T08:52:10.776Z,1014.08
2017-07-31T08:53:20.375Z,1014.09
2017-07-31T08:54:29.586Z,1014.1
2017-07-31T08:55:38.477Z,1014.07
2017-07-31T08:56:47.696Z,1014.11
2017-07-31T08:57:57.900Z,1014.08
2017-07-31T08:59:07.111Z,1014.06
2017-07-31T09:00:16.672Z,1014.1
2017-07-31T09:01:26.210Z,1014.09
2017-07-31T09:02:35.423Z,1014.12
2017-07-31T09:03:45.281Z,1014.18
2017-07-31T09:04:54.268Z,1014.17
2017-07-31T09:06:03.173Z,1014.16
2017-07-31T09:07:12.393Z,1014.11
2017-07-31T09:08:21.282Z,1014.13
2017-07-31T09:09:31.185Z,1014.2
2017-07-31T09:10:40.154Z,1014.16
2017-07-31T09:11:49.385Z,1014.15
2017-07-31T09:12:58.942Z,1014.15
2017-07-31T09:14:08.801Z,1014.13
2017-07-31T09:15:17.698Z,1014.14
2017-07-31T09:16:26.970Z,1014.12
2017-07-31T09:17:36.506Z,1014.11
2017-07-31T09:18:45.725Z,1014.13
2017-07-31T09:19:55.256Z,1014.07
2017-07-31T09:21:04.793Z,1014.08
2017-07-31T09:22:14.067Z,1014.07
2017-07-31T09:23:23.626Z,1014.04
2017-07-31T09:24:32.555Z,1014.01
2017-07-31T09:25:42.089Z,1014.06
2017-07-31T09:26:51.309Z,1014.11
2017-07-31T09:28:00.581Z,1014.12
2017-07-31T09:29:10.123Z,1014.09
2017-07-31T09:30:19.007Z,1014.09
2017-07-31T09:31:28.597Z,1014.05
2017-07-31T09:32:38.146Z,1014.02
2017-07-31T09:33:47.778Z,1014
2017-07-31T09:34:56.988Z,1013.93
2017-07-31T09:36:06.205Z,1013.94
2017-07-31T09:37:15.431Z,1013.93
2017-07-31T09:38:24.968Z,1013.93
2017-07-31T09:39:34.067Z,1013.9
2017-07-31T09:40:43.686Z,1013.89
2017-07-31T09:41:52.577Z,1013.95
2017-07-31T09:43:02.129Z,1013.95
2017-07-31T09:44:12.317Z,1013.95
2017-07-31T09:45:22.486Z,1013.87
2017-07-31T09:46:31.696Z,1013.94
2017-07-31T09:47:40.581Z,1013.98
2017-07-31T09:48:50.124Z,1014.01
2017-07-31T09:49:59.696Z,1014
2017-07-31T09:51:09.283Z,1013.93
2017-07-31T09:52:18.816Z,1013.94
2017-07-31T09:53:28.026Z,1013.94
2017-07-31T09:54:37.887Z,1013.89
2017-07-31T09:55:47.125Z,1013.92
2017-07-31T09:56:56.911Z,1013.92
2017-07-31T09:58:06.136Z,1013.93
2017-07-31T09:59:15.361Z,1013.94
2017-07-31T10:00:24.571Z,1013.88
2017-07-31T10:01:33.787Z,1013.83
2017-07-31T10:02:43.187Z,1013.84
2017-07-31T10:03:52.398Z,1013.87
2017-07-31T10:05:01.611Z,1013.83
2017-07-31T10:06:11.147Z,1013.85
2017-07-31T10:07:20.361Z,1013.85
2017-07-31T10:08:30.418Z,1013.93
2017-07-31T10:09:40.361Z,1013.93
2017-07-31T10:10:49.574Z,1013.91
2017-07-31T10:11:58.505Z,1013.87
2017-07-31T10:13:08.055Z,1013.87
2017-07-31T10:14:17.915Z,1013.86
2017-07-31T10:15:27.454Z,1013.89
2017-07-31T10:16:36.683Z,1013.9
2017-07-31T10:17:45.905Z,1013.96
2017-07-31T10:18:55.117Z,1013.95
2017-07-31T10:20:05.026Z,1014
2017-07-31T10:21:14.885Z,1014.01
2017-07-31T10:22:24.424Z,1014.03
2017-07-31T10:23:33.635Z,1014.05
2017-07-31T10:24:43.170Z,1014.09
2017-07-31T10:25:52.207Z,1014.1
2017-07-31T10:27:01.761Z,1014.12
2017-07-31T10:28:11.000Z,1014.12
2017-07-31T10:29:20.215Z,1014.11
2017-07-31T10:30:29.758Z,1014.14
2017-07-31T10:31:40.028Z,1014.12
2017-07-31T10:32:49.292Z,1014.1
2017-07-31T10:33:58.511Z,1014.18
2017-07-31T10:35:08.368Z,1014.14
2017-07-31T10:36:17.909Z,1014.15
2017-07-31T10:37:27.124Z,1014.11
2017-07-31T10:38:36.655Z,1014.11
2017-07-31T10:39:45.541Z,1014.13
2017-07-31T10:40:54.428Z,1014.12
2017-07-31T10:42:03.649Z,1014.13
2017-07-31T10:43:12.538Z,1014.12
2017-07-31T10:44:21.423Z,1014.08
2017-07-31T10:45:30.959Z,1014.08
2017-07-31T10:46:40.499Z,1014.02
2017-07-31T10:47:49.390Z,1014.01
2017-07-31T10:48:58.933Z,1013.97
2017-07-31T10:50:08.145Z,1014.02
2017-07-31T10:51:17.358Z,1014.03
2017-07-31T10:52:26.943Z,1014.03
2017-07-31T10:53:36.491Z,1014.05
2017-07-31T10:54:46.031Z,1014.03
2017-07-31T10:55:54.922Z,1014.06
2017-07-31T10:57:03.835Z,1014.07
2017-07-31T10:58:13.378Z,1014.08
2017-07-31T10:59:22.597Z,1014.05
2017-07-31T11:00:31.502Z,1014.06
2017-07-31T11:01:40.395Z,1014.04
2017-07-31T11:02:50.114Z,1013.98
2017-07-31T11:03:59.326Z,1014.04
2017-07-31T11:05:09.188Z,1014.06
2017-07-31T11:06:18.727Z,1014.08
2017-07-31T11:07:27.960Z,1014.06
2017-07-31T11:08:37.653Z,1014.01
2017-07-31T11:09:47.194Z,1014
2017-07-31T11:10:56.728Z,1014.02
2017-07-31T11:12:06.594Z,1013.97
2017-07-31T11:13:15.810Z,1013.98
2017-07-31T11:14:25.344Z,1013.95
2017-07-31T11:15:34.557Z,1014.01
2017-07-31T11:16:44.104Z,1013.95
2017-07-31T11:17:53.647Z,1013.97
2017-07-31T11:19:02.859Z,1013.99
2017-07-31T11:20:11.998Z,1013.98
2017-07-31T11:21:20.890Z,1014
2017-07-31T11:22:30.426Z,1013.99
2017-07-31T11:23:39.641Z,1013.93
2017-07-31T11:24:49.833Z,1013.93
2017-07-31T11:25:58.777Z,1013.88
2017-07-31T11:27:08.315Z,1013.85
2017-07-31T11:28:17.530Z,1013.8
2017-07-31T11:29:27.066Z,1013.78
2017-07-31T11:30:35.957Z,1013.73
2017-07-31T11:31:45.887Z,1013.66
2017-07-31T11:32:55.422Z,1013.65
2017-07-31T11:34:04.310Z,1013.64
2017-07-31T11:35:13.843Z,1013.7
2017-07-31T11:36:23.427Z,1013.71
2017-07-31T11:37:32.791Z,1013.7
2017-07-31T11:38:42.332Z,1013.68
2017-07-31T11:39:51.548Z,1013.67
2017-07-31T11:41:01.086Z,1013.77
2017-07-31T11:42:11.271Z,1013.74
2017-07-31T11:43:20.818Z,1013.77
2017-07-31T11:44:30.034Z,1013.75
2017-07-31T11:45:39.571Z,1013.78
2017-07-31T11:46:48.464Z,1013.8
2017-07-31T11:47:57.692Z,1013.88
2017-07-31T11:49:07.386Z,1013.83
2017-07-31T11:50:16.630Z,1013.84
2017-07-31T11:51:26.493Z,1013.87
2017-07-31T11:52:36.351Z,1013.82
2017-07-31T11:53:46.214Z,1013.83
2017-07-31T11:54:55.853Z,1013.81
2017-07-31T11:56:05.713Z,1013.87
2017-07-31T11:57:15.255Z,1013.86
2017-07-31T11:58:24.469Z,1013.87
2017-07-31T11:59:33.396Z,1013.84
2017-07-31T12:00:42.286Z,1013.9
2017-07-31T12:01:51.516Z,1013.9
2017-07-31T12:03:01.373Z,1013.87
2017-07-31T12:04:10.587Z,1013.9
2017-07-31T12:05:19.475Z,1013.9
2017-07-31T12:06:29.433Z,1013.91
2017-07-31T12:07:38.649Z,1013.94
2017-07-31T12:08:47.860Z,1013.93
2017-07-31T12:09:56.749Z,1013.89
2017-07-31T12:11:06.288Z,1013.93
2017-07-31T12:12:15.179Z,1013.86
2017-07-31T12:13:24.395Z,1013.89
2017-07-31T12:14:33.606Z,1013.88
2017-07-31T12:15:43.254Z,1013.84
2017-07-31T12:16:52.505Z,1013.81
2017-07-31T12:18:01.726Z,1013.81
2017-07-31T12:19:10.618Z,1013.88
2017-07-31T12:20:20.477Z,1013.87
2017-07-31T12:21:29.690Z,1013.91
2017-07-31T12:22:39.233Z,1013.89
2017-07-31T12:23:48.180Z,1013.82
2017-07-31T12:24:58.099Z,1013.81
2017-07-31T12:26:07.313Z,1013.77
2017-07-31T12:27:16.218Z,1013.78
2017-07-31T12:28:25.443Z,1013.81
2017-07-31T12:29:35.847Z,1013.84
2017-07-31T12:30:45.147Z,1013.85
2017-07-31T12:31:54.380Z,1013.96
2017-07-31T12:33:03.929Z,1013.98
2017-07-31T12:34:13.471Z,1014.06
2017-07-31T12:35:23.494Z,1013.93
2017-07-31T12:36:32.716Z,1013.99
2017-07-31T12:37:41.928Z,1014.02
2017-07-31T12:38:50.858Z,1014.08
2017-07-31T12:40:00.080Z,1014.04
2017-07-31T12:41:09.464Z,1014.03
2017-07-31T12:42:19.020Z,1014.02
2017-07-31T12:43:28.886Z,1013.98
2017-07-31T12:44:38.751Z,1013.95
2017-07-31T12:45:47.648Z,1013.97
2017-07-31T12:46:57.495Z,1013.84
2017-07-31T12:48:07.038Z,1013.82
2017-07-31T12:49:16.919Z,1013.85
2017-07-31T12:50:26.787Z,1013.9
2017-07-31T12:51:36.744Z,1013.83
2017-07-31T12:52:46.368Z,1013.91
2017-07-31T12:53:55.940Z,1014.02
2017-07-31T12:55:05.296Z,1013.94
2017-07-31T12:56:15.512Z,1013.81
2017-07-31T12:57:25.128Z,1013.85
2017-07-31T12:58:34.726Z,1013.86
2017-07-31T12:59:44.269Z,1013.78
2017-07-31T13:00:53.487Z,1013.81
2017-07-31T13:02:02.711Z,1013.83
2017-07-31T13:03:12.253Z,1013.86
2017-07-31T13:04:22.267Z,1013.83
2017-07-31T13:05:31.193Z,1013.76
2017-07-31T13:06:40.746Z,1013.84
2017-07-31T13:07:49.653Z,1013.86
2017-07-31T13:08:59.210Z,1013.8
2017-07-31T13:10:08.582Z,1013.8
2017-07-31T13:11:17.480Z,1013.82
2017-07-31T13:12:26.698Z,1013.82
2017-07-31T13:13:35.916Z,1013.84
2017-07-31T13:14:45.136Z,1013.85
2017-07-31T13:15:55.283Z,1013.83
2017-07-31T13:17:05.501Z,1013.85
2017-07-31T13:18:15.045Z,1013.86
2017-07-31T13:19:24.601Z,1013.85
2017-07-31T13:20:34.141Z,1013.95
2017-07-31T13:21:43.835Z,1014.03
2017-07-31T13:22:53.699Z,1013.91
2017-07-31T13:24:02.916Z,1013.92
2017-07-31T13:25:12.139Z,1014.02
2017-07-31T13:26:21.039Z,1013.95
2017-07-31T13:27:31.054Z,1013.95
2017-07-31T13:28:40.597Z,1014.03
2017-07-31T13:29:49.812Z,1014.08
2017-07-31T13:30:59.351Z,1014.05
2017-07-31T13:32:08.892Z,1014.17
2017-07-31T13:33:18.279Z,1014.18
2017-07-31T13:34:27.826Z,1014
2017-07-31T13:35:37.051Z,1014.01
2017-07-31T13:36:46.604Z,1014.03
2017-07-31T13:37:55.823Z,1013.99
2017-07-31T13:39:05.538Z,1014
2017-07-31T13:40:14.769Z,1013.99
2017-07-31T13:41:24.311Z,1014.03
2017-07-31T13:42:33.859Z,1014.05
2017-07-31T13:43:43.419Z,1014.01
2017-07-31T13:44:52.751Z,1014.05
2017-07-31T13:46:01.980Z,1014.15
2017-07-31T13:47:11.522Z,1014.11
2017-07-31T13:48:21.073Z,1014.13
2017-07-31T13:49:30.289Z,1013.99
2017-07-31T13:50:40.564Z,1013.95
2017-07-31T13:51:50.105Z,1013.9
2017-07-31T13:53:00.297Z,1013.99
2017-07-31T13:54:09.524Z,1014.07
2017-07-31T13:55:18.463Z,1014.02
2017-07-31T13:56:28.171Z,1014.06
2017-07-31T13:57:37.397Z,1014.09
2017-07-31T13:58:46.302Z,1014.16
2017-07-31T13:59:55.858Z,1014.26
2017-07-31T14:01:05.401Z,1014.3
2017-07-31T14:02:15.093Z,1014.17
2017-07-31T14:03:24.320Z,1014.21